createdAt,value
2022-09-29T00:02:11.744Z,4.93
2022-09-29T00:04:38.616Z,4.67
2022-09-29T00:07:05.470Z,3.43
2022-09-29T00:09:32.358Z,3.40
2022-09-29T00:11:59.182Z,3.50
2022-09-29T00:14:29.086Z,2.90
2022-09-29T00:16:56.340Z,2.57
2022-09-29T00:19:23.305Z,2.90
2022-09-29T00:21:50.170Z,3.33
2022-09-29T00:24:17.070Z,3.27
2022-09-29T00:26:46.743Z,3.07
2022-09-29T00:29:13.728Z,3.40
2022-09-29T00:31:40.644Z,3.70
2022-09-29T00:34:07.649Z,3.67
2022-09-29T00:36:34.506Z,3.37
2022-09-29T00:39:01.450Z,3.20
2022-09-29T00:41:32.209Z,3.23
2022-09-29T00:44:23.874Z,3.20
2022-09-29T00:46:56.798Z,3.20
2022-09-29T00:49:41.583Z,3.30
2022-09-29T00:52:18.346Z,3.23
2022-09-29T00:55:26.140Z,3.17
2022-09-29T00:57:58.750Z,3.40
2022-09-29T01:00:26.578Z,3.13
2022-09-29T01:03:09.755Z,3.60
2022-09-29T01:05:42.734Z,2.83
2022-09-29T01:08:15.021Z,3.67
2022-09-29T01:10:43.868Z,3.40
2022-09-29T01:13:11.600Z,3.40
2022-09-29T01:15:39.007Z,2.87
2022-09-29T01:18:06.970Z,3.20
2022-09-29T01:20:39.790Z,3.20
2022-09-29T01:23:32.788Z,3.33
2022-09-29T01:26:14.879Z,3.30
2022-09-29T01:29:01.388Z,3.23
2022-09-29T01:31:43.422Z,3.73
2022-09-29T01:34:21.339Z,3.37
2022-09-29T01:37:08.377Z,3.23
2022-09-29T01:39:42.061Z,3.80
2022-09-29T01:42:19.798Z,3.70
2022-09-29T01:44:53.487Z,3.97
2022-09-29T01:47:25.894Z,3.50
2022-09-29T01:50:24.287Z,3.73
2022-09-29T01:53:00.189Z,4.00
2022-09-29T01:55:31.035Z,3.63
2022-09-29T01:58:01.763Z,3.80
2022-09-29T02:00:32.466Z,3.70
2022-09-29T02:03:08.496Z,3.13
2022-09-29T02:05:46.201Z,3.10
2022-09-29T02:08:51.204Z,3.50
2022-09-29T02:11:18.985Z,3.40
2022-09-29T02:13:54.554Z,3.20
2022-09-29T02:16:31.987Z,3.07
2022-09-29T02:19:23.022Z,3.20
2022-09-29T02:21:54.363Z,2.87
2022-09-29T02:24:22.447Z,3.00
2022-09-29T02:26:49.567Z,2.70
2022-09-29T02:29:17.451Z,2.80
2022-09-29T02:31:46.842Z,3.17
2022-09-29T02:34:19.077Z,2.97
2022-09-29T02:37:11.898Z,2.73
2022-09-29T02:39:52.652Z,2.90
2022-09-29T02:42:27.442Z,2.80
2022-09-29T02:45:06.534Z,3.40
2022-09-29T02:48:08.655Z,2.93
2022-09-29T02:51:02.421Z,2.73
2022-09-29T02:53:32.446Z,2.90
2022-09-29T02:56:23.723Z,3.27
2022-09-29T02:59:05.210Z,3.57
2022-09-29T03:01:35.464Z,2.87
2022-09-29T03:04:04.671Z,3.50
2022-09-29T03:06:32.570Z,3.03
2022-09-29T03:08:59.491Z,3.17
2022-09-29T03:11:26.551Z,3.20
2022-09-29T03:13:53.744Z,3.40
2022-09-29T03:16:20.692Z,3.37
2022-09-29T03:18:47.595Z,2.67
2022-09-29T03:21:14.477Z,3.80
2022-09-29T03:23:41.324Z,4.03
2022-09-29T03:26:08.183Z,3.73
2022-09-29T03:28:35.487Z,3.80
2022-09-29T03:31:10.095Z,3.93
2022-09-29T03:33:38.579Z,3.70
2022-09-29T03:36:06.636Z,3.27
2022-09-29T03:38:33.770Z,3.33
2022-09-29T03:41:01.311Z,3.40
2022-09-29T03:43:28.291Z,3.00
2022-09-29T03:45:56.382Z,3.63
2022-09-29T03:48:24.967Z,3.30
2022-09-29T03:50:53.876Z,3.63
2022-09-29T03:53:20.859Z,4.03
2022-09-29T03:55:49.513Z,3.43
2022-09-29T03:58:17.974Z,3.30
2022-09-29T04:00:45.283Z,4.10
2022-09-29T04:03:12.148Z,4.30
2022-09-29T04:05:40.725Z,3.60
2022-09-29T04:08:08.582Z,3.60
2022-09-29T04:10:39.048Z,4.10
2022-09-29T04:13:07.037Z,3.93
2022-09-29T04:15:35.823Z,3.87
2022-09-29T04:18:02.824Z,4.10
2022-09-29T04:20:30.018Z,3.43
2022-09-29T04:23:01.074Z,3.80
2022-09-29T04:25:28.342Z,4.47
2022-09-29T04:27:55.269Z,3.93
2022-09-29T04:30:22.203Z,3.77
2022-09-29T04:32:49.145Z,4.13
2022-09-29T04:35:16.246Z,4.03
2022-09-29T04:37:47.393Z,4.50
2022-09-29T04:40:14.736Z,4.37
2022-09-29T04:42:41.648Z,3.70
2022-09-29T04:45:08.945Z,4.30
2022-09-29T04:47:36.797Z,5.93
2022-09-29T04:50:03.822Z,4.90
2022-09-29T04:52:32.760Z,4.93
2022-09-29T04:54:59.627Z,4.80
2022-09-29T04:57:27.668Z,4.40
2022-09-29T04:59:54.828Z,4.93
2022-09-29T05:02:24.101Z,4.07
2022-09-29T05:04:53.324Z,4.30
2022-09-29T05:07:21.623Z,3.50
2022-09-29T05:09:49.393Z,4.50
2022-09-29T05:12:18.231Z,4.20
2022-09-29T05:14:48.472Z,5.10
2022-09-29T05:20:14.439Z,3.30
2022-09-29T05:22:43.422Z,7.10
2022-09-29T05:25:17.258Z,3.83
2022-09-29T05:27:44.276Z,3.90
2022-09-29T05:30:12.383Z,3.70
2022-09-29T05:35:26.030Z,5.73
2022-09-29T05:40:38.371Z,3.90
2022-09-29T05:48:39.936Z,3.83
2022-09-29T05:51:10.363Z,4.83
2022-09-29T05:53:37.719Z,2.60
2022-09-29T05:56:14.837Z,3.43
2022-09-29T06:01:27.213Z,4.30
2022-09-29T06:03:55.573Z,3.03
2022-09-29T06:06:27.166Z,3.17
2022-09-29T06:08:55.501Z,2.83
2022-09-29T06:11:33.331Z,3.30
2022-09-29T06:14:02.252Z,3.43
2022-09-29T06:16:30.511Z,3.93
2022-09-29T06:21:42.679Z,3.57
2022-09-29T06:24:10.339Z,4.80
2022-09-29T06:26:38.317Z,3.93
2022-09-29T06:31:52.480Z,3.30
2022-09-29T06:34:19.542Z,3.90
2022-09-29T06:37:07.763Z,3.77
2022-09-29T06:39:34.687Z,3.20
2022-09-29T06:42:03.317Z,3.43
2022-09-29T06:44:30.852Z,4.60
2022-09-29T06:46:59.011Z,3.83
2022-09-29T06:49:26.197Z,3.40
2022-09-29T06:51:53.157Z,3.43
2022-09-29T06:54:25.199Z,3.53
2022-09-29T06:56:54.118Z,3.27
2022-09-29T06:59:21.227Z,3.20
2022-09-29T07:01:50.816Z,3.53
2022-09-29T07:04:21.693Z,3.53
2022-09-29T07:06:49.435Z,2.80
2022-09-29T07:09:16.787Z,4.27
2022-09-29T07:11:49.201Z,2.87
2022-09-29T07:14:18.043Z,3.00
2022-09-29T07:16:46.766Z,2.60
2022-09-29T07:19:16.891Z,2.90
2022-09-29T07:21:45.988Z,3.50
2022-09-29T07:24:13.998Z,3.13
2022-09-29T07:26:40.911Z,2.87
2022-09-29T07:29:12.658Z,3.80
2022-09-29T07:31:50.695Z,3.57
2022-09-29T07:34:21.129Z,3.40
2022-09-29T07:36:48.158Z,3.33
2022-09-29T07:39:15.235Z,4.37
2022-09-29T07:41:42.247Z,3.43
2022-09-29T07:44:09.272Z,3.57
2022-09-29T07:46:36.212Z,5.03
2022-09-29T07:49:03.178Z,4.57
2022-09-29T07:51:30.102Z,3.43
2022-09-29T07:54:02.858Z,5.20
2022-09-29T07:56:30.013Z,4.60
2022-09-29T07:58:58.050Z,3.83
2022-09-29T08:01:25.266Z,3.93
2022-09-29T08:03:54.867Z,3.77
2022-09-29T08:06:24.634Z,3.80
2022-09-29T08:09:02.456Z,4.60
2022-09-29T08:11:32.697Z,2.77
2022-09-29T08:14:01.071Z,2.70
2022-09-29T08:16:29.282Z,2.60
2022-09-29T08:18:56.236Z,3.60
2022-09-29T08:21:23.124Z,4.47
2022-09-29T08:23:50.124Z,4.60
2022-09-29T08:26:26.059Z,3.87
2022-09-29T08:29:07.006Z,3.07
2022-09-29T08:31:37.323Z,3.23
2022-09-29T08:34:04.366Z,5.37
2022-09-29T08:36:31.805Z,3.03
2022-09-29T08:38:59.259Z,3.43
2022-09-29T08:41:36.688Z,3.10
2022-09-29T08:44:30.881Z,2.63
2022-09-29T08:47:15.450Z,2.70
2022-09-29T08:49:48.137Z,3.13
2022-09-29T08:52:40.417Z,3.20
2022-09-29T08:55:21.052Z,4.50
2022-09-29T08:57:55.465Z,2.90
2022-09-29T09:00:33.603Z,2.80
2022-09-29T09:03:22.913Z,2.20
2022-09-29T09:06:20.932Z,3.73
2022-09-29T09:09:06.897Z,2.60
2022-09-29T09:12:05.971Z,2.83
2022-09-29T09:14:56.301Z,2.50
2022-09-29T09:17:35.100Z,2.77
2022-09-29T09:20:17.300Z,2.30
2022-09-29T09:22:57.888Z,2.13
2022-09-29T09:25:32.621Z,2.37
2022-09-29T09:28:19.993Z,2.43
2022-09-29T09:30:54.847Z,2.87
2022-09-29T09:33:39.593Z,2.17
2022-09-29T09:36:33.343Z,2.70
2022-09-29T09:39:15.871Z,2.57
2022-09-29T09:41:48.033Z,2.43
2022-09-29T09:44:25.937Z,1.73
2022-09-29T09:46:58.316Z,2.47
2022-09-29T09:49:44.695Z,2.07
2022-09-29T09:52:24.914Z,2.00
2022-09-29T09:55:02.882Z,2.20
2022-09-29T09:57:42.109Z,2.40
2022-09-29T10:00:26.942Z,2.10
2022-09-29T10:02:56.223Z,2.60
2022-09-29T10:05:26.789Z,2.10
2022-09-29T10:07:55.333Z,2.40
2022-09-29T10:10:25.346Z,2.63
2022-09-29T10:13:13.108Z,2.60
2022-09-29T10:15:58.529Z,2.13
2022-09-29T10:18:39.124Z,2.27
2022-09-29T10:21:23.646Z,2.50
2022-09-29T10:23:53.030Z,2.70
2022-09-29T10:26:43.490Z,2.80
2022-09-29T10:29:29.126Z,2.90
2022-09-29T10:32:37.052Z,2.63
2022-09-29T10:35:17.667Z,3.00
2022-09-29T10:37:50.716Z,2.50
2022-09-29T10:40:23.950Z,2.80
2022-09-29T10:42:51.785Z,2.77
2022-09-29T10:45:26.046Z,2.37
2022-09-29T10:47:59.198Z,2.50
2022-09-29T10:50:39.604Z,4.70
2022-09-29T10:53:37.370Z,3.00
2022-09-29T10:56:30.562Z,3.40
2022-09-29T10:59:05.693Z,2.87
2022-09-29T11:01:45.387Z,2.70
2022-09-29T11:04:32.497Z,2.67
2022-09-29T11:07:11.078Z,2.47
2022-09-29T11:09:44.236Z,3.47
2022-09-29T11:12:26.606Z,2.50
2022-09-29T11:14:53.598Z,2.60
2022-09-29T11:17:24.690Z,2.70
2022-09-29T11:19:53.817Z,2.27
2022-09-29T11:22:49.213Z,2.00
2022-09-29T11:25:19.048Z,2.40
2022-09-29T11:27:54.984Z,2.40
2022-09-29T11:30:25.161Z,2.80
2022-09-29T11:33:01.260Z,3.33
2022-09-29T11:35:52.992Z,2.23
2022-09-29T11:38:49.012Z,2.60
2022-09-29T11:41:53.781Z,2.87
2022-09-29T11:44:55.936Z,2.43
2022-09-29T11:47:28.924Z,2.80
2022-09-29T11:50:04.637Z,2.90
2022-09-29T11:52:34.520Z,2.60
2022-09-29T11:55:05.618Z,2.10
2022-09-29T11:57:54.444Z,2.37
2022-09-29T12:00:43.848Z,2.30
2022-09-29T12:04:09.798Z,1.90
2022-09-29T12:06:45.788Z,2.50
2022-09-29T12:09:22.210Z,2.17
2022-09-29T12:12:24.330Z,2.00
2022-09-29T12:15:26.719Z,2.00
2022-09-29T12:17:59.128Z,1.90
2022-09-29T12:20:31.184Z,2.07
2022-09-29T12:23:02.215Z,1.93
2022-09-29T12:25:32.817Z,2.50
2022-09-29T12:28:18.137Z,2.17
2022-09-29T12:30:53.056Z,1.77
2022-09-29T12:33:33.738Z,1.87
2022-09-29T12:36:45.658Z,2.00
2022-09-29T12:39:39.128Z,2.63
2022-09-29T12:42:30.874Z,2.47
2022-09-29T12:45:19.481Z,2.27
2022-09-29T12:48:04.828Z,2.60
2022-09-29T12:51:10.616Z,2.53
2022-09-29T12:53:39.736Z,2.30
2022-09-29T12:56:15.569Z,2.10
2022-09-29T12:58:53.167Z,2.37
2022-09-29T13:01:29.810Z,1.90
2022-09-29T13:04:18.733Z,2.10
2022-09-29T13:07:03.754Z,2.57
2022-09-29T13:10:22.188Z,2.30
2022-09-29T13:13:07.914Z,3.13
2022-09-29T13:15:38.992Z,2.10
2022-09-29T13:18:59.842Z,2.13
2022-09-29T13:22:01.218Z,2.10
2022-09-29T13:24:52.026Z,2.03
2022-09-29T13:27:35.190Z,2.10
2022-09-29T13:30:15.523Z,1.73
2022-09-29T13:33:04.256Z,2.00
2022-09-29T13:35:39.911Z,1.70
2022-09-29T13:38:16.127Z,1.90
2022-09-29T13:41:14.029Z,2.30
2022-09-29T13:46:33.902Z,2.90
2022-09-29T13:49:15.563Z,5.03
2022-09-29T13:52:07.101Z,2.83
2022-09-29T13:54:35.550Z,2.20
2022-09-29T13:57:23.730Z,2.27
2022-09-29T13:59:56.266Z,3.10
2022-09-29T14:02:43.250Z,7.67
2022-09-29T14:05:25.252Z,3.57
2022-09-29T14:07:55.113Z,3.00
2022-09-29T14:10:37.357Z,3.00
2022-09-29T14:13:17.291Z,2.70
2022-09-29T14:15:52.434Z,1.97
2022-09-29T14:18:28.103Z,2.50
2022-09-29T14:20:59.728Z,1.87
2022-09-29T14:23:45.830Z,2.93
2022-09-29T14:26:48.527Z,3.17
2022-09-29T14:29:30.762Z,2.90
2022-09-29T14:32:00.423Z,1.97
2022-09-29T14:34:31.374Z,2.43
2022-09-29T14:37:00.461Z,2.40
2022-09-29T14:39:29.136Z,2.03
2022-09-29T14:41:56.589Z,2.13
2022-09-29T14:44:48.384Z,2.30
2022-09-29T14:47:57.425Z,2.00
2022-09-29T14:51:13.748Z,2.00
2022-09-29T14:54:12.727Z,2.27
2022-09-29T14:56:56.384Z,2.20
2022-09-29T14:59:44.976Z,1.67
2022-09-29T15:02:34.275Z,1.80
2022-09-29T15:05:13.240Z,1.87
2022-09-29T15:07:42.448Z,1.80
2022-09-29T15:10:26.696Z,1.90
2022-09-29T15:13:20.472Z,2.17
2022-09-29T15:15:49.111Z,2.30
2022-09-29T15:18:31.036Z,2.90
2022-09-29T15:21:05.286Z,2.13
2022-09-29T15:24:10.760Z,2.23
2022-09-29T15:26:38.355Z,2.73
2022-09-29T15:29:07.640Z,3.43
2022-09-29T15:31:36.638Z,2.57
2022-09-29T15:34:04.638Z,4.57
2022-09-29T15:36:37.197Z,4.87
2022-09-29T15:39:34.553Z,3.30
2022-09-29T15:42:04.336Z,4.33
2022-09-29T15:44:33.894Z,3.80
2022-09-29T15:47:01.167Z,4.83
2022-09-29T15:49:29.996Z,5.67
2022-09-29T15:52:27.801Z,6.97
2022-09-29T15:54:57.233Z,5.17
2022-09-29T15:57:44.739Z,5.67
2022-09-29T16:00:23.830Z,5.57
2022-09-29T16:03:02.299Z,4.63
2022-09-29T16:05:40.249Z,4.37
2022-09-29T16:08:29.058Z,6.80
2022-09-29T16:10:58.180Z,7.03
2022-09-29T16:13:42.556Z,8.23
2022-09-29T16:16:11.393Z,3.67
2022-09-29T16:18:56.440Z,3.10
2022-09-29T16:21:30.238Z,4.03
2022-09-29T16:27:44.351Z,3.50
2022-09-29T16:30:21.915Z,2.90
2022-09-29T16:33:01.887Z,2.30
2022-09-29T16:35:43.138Z,2.30
2022-09-29T16:38:40.465Z,2.37
2022-09-29T16:41:11.883Z,3.57
2022-09-29T16:43:42.059Z,4.30
2022-09-29T16:46:14.721Z,4.70
2022-09-29T16:48:46.230Z,5.20
2022-09-29T16:54:04.032Z,6.37
2022-09-29T16:56:35.369Z,6.10
2022-09-29T16:59:15.790Z,5.20
2022-09-29T17:01:44.493Z,4.60
2022-09-29T17:04:12.106Z,3.73
2022-09-29T17:06:45.254Z,3.37
2022-09-29T17:09:18.525Z,3.40
2022-09-29T17:11:47.699Z,3.80
2022-09-29T17:14:14.880Z,3.80
2022-09-29T17:16:42.046Z,3.70
2022-09-29T17:19:11.138Z,4.33
2022-09-29T17:21:38.347Z,7.20
2022-09-29T17:24:05.685Z,4.00
2022-09-29T17:27:00.825Z,4.40
2022-09-29T17:29:31.960Z,3.73
2022-09-29T17:31:59.134Z,3.43
2022-09-29T17:34:29.070Z,3.67
2022-09-29T17:37:01.562Z,3.50
2022-09-29T17:39:29.587Z,5.00
2022-09-29T17:41:57.817Z,4.27
2022-09-29T17:44:27.141Z,4.63
2022-09-29T17:47:05.597Z,3.70
2022-09-29T17:49:44.186Z,3.57
2022-09-29T17:52:15.298Z,3.53
2022-09-29T17:54:43.819Z,3.60
2022-09-29T17:57:22.051Z,2.53
2022-09-29T17:59:49.032Z,2.53
2022-09-29T18:02:16.673Z,2.60
2022-09-29T18:04:48.576Z,2.10
2022-09-29T18:07:16.423Z,2.30
2022-09-29T18:09:44.657Z,2.47
2022-09-29T18:12:11.706Z,1.80
2022-09-29T18:14:38.754Z,2.10
2022-09-29T18:17:06.108Z,2.60
2022-09-29T18:19:35.807Z,2.50
2022-09-29T18:22:06.134Z,2.00
2022-09-29T18:24:33.970Z,2.10
2022-09-29T18:27:01.074Z,2.23
2022-09-29T18:29:31.488Z,2.07
2022-09-29T18:32:02.882Z,1.93
2022-09-29T18:34:33.555Z,2.47
2022-09-29T18:37:02.320Z,2.57
2022-09-29T18:39:29.207Z,1.83
2022-09-29T18:41:56.041Z,2.07
2022-09-29T18:44:29.505Z,2.87
2022-09-29T18:46:56.486Z,3.10
2022-09-29T18:49:24.892Z,2.43
2022-09-29T18:51:52.843Z,2.33
2022-09-29T18:54:19.777Z,2.67
2022-09-29T18:56:46.735Z,2.60
2022-09-29T18:59:14.145Z,2.90
2022-09-29T19:01:41.274Z,2.97
2022-09-29T19:04:10.263Z,3.20
2022-09-29T19:06:37.142Z,3.30
2022-09-29T19:09:05.591Z,3.77
2022-09-29T19:11:33.780Z,3.37
2022-09-29T19:14:01.322Z,3.43
2022-09-29T19:16:30.985Z,3.33
2022-09-29T19:18:57.958Z,3.13
2022-09-29T19:21:25.382Z,3.33
2022-09-29T19:23:52.243Z,3.20
2022-09-29T19:26:22.522Z,2.93
2022-09-29T19:28:50.589Z,3.90
2022-09-29T19:31:20.233Z,3.73
2022-09-29T19:33:48.910Z,3.80
2022-09-29T19:36:19.314Z,3.63
2022-09-29T19:38:47.510Z,3.60
2022-09-29T19:41:17.748Z,4.00
2022-09-29T19:43:45.799Z,3.20
2022-09-29T19:46:14.657Z,3.27
2022-09-29T19:48:43.344Z,3.40
2022-09-29T19:51:33.607Z,3.23
2022-09-29T19:54:11.289Z,3.60
2022-09-29T19:56:42.486Z,3.00
2022-09-29T19:59:13.910Z,3.13
2022-09-29T20:01:43.080Z,2.73
2022-09-29T20:04:11.694Z,2.50
2022-09-29T20:06:39.849Z,3.10
2022-09-29T20:09:07.679Z,2.63
2022-09-29T20:11:37.070Z,2.67
2022-09-29T20:14:07.009Z,2.70
2022-09-29T20:16:37.253Z,3.00
2022-09-29T20:19:05.697Z,3.10
2022-09-29T20:21:33.146Z,2.70
2022-09-29T20:24:01.272Z,3.07
2022-09-29T20:26:28.703Z,3.20
2022-09-29T20:28:55.601Z,3.37
2022-09-29T20:31:23.651Z,2.80
2022-09-29T20:33:51.931Z,2.67
2022-09-29T20:36:19.235Z,2.50
2022-09-29T20:38:50.875Z,2.50
2022-09-29T20:41:18.342Z,2.50
2022-09-29T20:43:54.510Z,2.80
2022-09-29T20:46:25.472Z,2.80
2022-09-29T20:48:56.344Z,2.70
2022-09-29T20:51:24.598Z,2.83
2022-09-29T20:53:57.272Z,3.07
2022-09-29T20:56:31.179Z,3.13
2022-09-29T20:59:00.002Z,2.70
2022-09-29T21:01:31.622Z,3.13
2022-09-29T21:04:01.712Z,2.73
2022-09-29T21:06:30.296Z,2.67
2022-09-29T21:09:01.044Z,2.77
2022-09-29T21:11:28.281Z,2.80
2022-09-29T21:13:59.193Z,2.83
2022-09-29T21:16:26.327Z,3.20
2022-09-29T21:18:55.125Z,3.07
2022-09-29T21:21:22.679Z,2.30
2022-09-29T21:23:52.264Z,2.83
2022-09-29T21:26:22.611Z,3.10
2022-09-29T21:28:54.703Z,3.33
2022-09-29T21:31:24.453Z,2.63
2022-09-29T21:33:56.415Z,2.90
2022-09-29T21:36:25.930Z,2.23
2022-09-29T21:38:53.195Z,2.80
2022-09-29T21:41:28.564Z,2.60
2022-09-29T21:43:58.466Z,2.90
2022-09-29T21:46:27.839Z,3.10
2022-09-29T21:49:00.437Z,3.00
2022-09-29T21:51:39.000Z,3.13
2022-09-29T21:54:08.124Z,3.30
2022-09-29T21:56:39.053Z,2.80
2022-09-29T21:59:06.699Z,3.17
2022-09-29T22:01:33.708Z,3.00
2022-09-29T22:04:02.506Z,3.00
2022-09-29T22:06:32.335Z,3.07
2022-09-29T22:09:00.627Z,3.00
2022-09-29T22:11:30.652Z,3.40
2022-09-29T22:13:59.795Z,2.80
2022-09-29T22:16:30.529Z,3.07
2022-09-29T22:19:22.017Z,2.70
2022-09-29T22:21:46.680Z,2.30
2022-09-29T22:24:13.682Z,3.00
2022-09-29T22:26:41.134Z,2.63
2022-09-29T22:29:08.416Z,2.63
2022-09-29T22:31:35.691Z,3.33
2022-09-29T22:34:07.430Z,2.40
2022-09-29T22:36:34.933Z,2.80
2022-09-29T22:39:04.855Z,2.90
2022-09-29T22:41:33.216Z,2.80
2022-09-29T22:44:01.122Z,2.73
2022-09-29T22:46:30.071Z,2.50
2022-09-29T22:48:58.278Z,2.73
2022-09-29T22:51:25.280Z,3.00
2022-09-29T22:53:52.214Z,2.83
2022-09-29T22:56:22.112Z,2.83
2022-09-29T22:58:49.594Z,2.20
2022-09-29T23:01:18.291Z,2.50
2022-09-29T23:03:46.204Z,2.50
2022-09-29T23:06:14.424Z,3.17
2022-09-29T23:08:42.831Z,2.70
2022-09-29T23:11:17.618Z,3.30
2022-09-29T23:13:45.445Z,2.70
2022-09-29T23:16:14.265Z,3.17
2022-09-29T23:18:44.211Z,3.27
2022-09-29T23:21:19.875Z,3.13
2022-09-29T23:23:51.250Z,3.27
2022-09-29T23:26:18.269Z,3.20
2022-09-29T23:28:45.150Z,3.10
2022-09-29T23:31:12.606Z,4.17
2022-09-29T23:33:39.655Z,4.27
2022-09-29T23:36:08.921Z,3.30
2022-09-29T23:38:56.141Z,3.50
2022-09-29T23:41:24.948Z,3.20
2022-09-29T23:43:51.790Z,2.53
2022-09-29T23:46:18.776Z,2.43
2022-09-29T23:48:45.656Z,2.67
2022-09-29T23:51:12.844Z,3.13
2022-09-29T23:53:40.423Z,2.73
2022-09-29T23:56:07.386Z,2.30
2022-09-29T23:58:34.367Z,2.77
